createdAt,value
2023-03-29T00:01:46.047Z,38.58
2023-03-29T00:03:52.111Z,38.57
2023-03-29T00:06:03.307Z,38.65
2023-03-29T00:08:08.404Z,39.00
2023-03-29T00:10:14.877Z,38.89
2023-03-29T00:12:19.863Z,38.68
2023-03-29T00:14:24.690Z,39.01
2023-03-29T00:16:29.942Z,39.00
2023-03-29T00:18:34.788Z,39.01
2023-03-29T00:20:39.640Z,38.91
2023-03-29T00:22:47.511Z,39.17
2023-03-29T00:24:56.567Z,39.01
2023-03-29T00:27:01.760Z,38.79
2023-03-29T00:29:06.897Z,39.09
2023-03-29T00:31:13.400Z,39.08
2023-03-29T00:33:19.280Z,39.42
2023-03-29T00:35:24.122Z,39.43
2023-03-29T00:37:30.063Z,39.43
2023-03-29T00:39:37.854Z,39.49
2023-03-29T00:41:42.672Z,39.51
2023-03-29T00:44:06.683Z,39.88
2023-03-29T00:46:12.204Z,39.83
2023-03-29T00:48:21.093Z,39.95
2023-03-29T00:50:29.943Z,39.76
2023-03-29T00:52:36.137Z,39.93
2023-03-29T00:54:46.371Z,39.98
2023-03-29T00:56:53.980Z,40.14
2023-03-29T00:59:05.060Z,39.96
2023-03-29T01:01:17.638Z,40.02
2023-03-29T01:03:27.655Z,40.00
2023-03-29T01:05:38.211Z,40.19
2023-03-29T01:07:50.571Z,40.14
2023-03-29T01:10:06.840Z,40.27
2023-03-29T01:12:17.339Z,40.21
2023-03-29T01:14:34.013Z,40.34
2023-03-29T01:16:41.197Z,40.34
2023-03-29T01:18:47.212Z,40.37
2023-03-29T01:21:07.972Z,40.52
2023-03-29T01:23:31.680Z,40.26
2023-03-29T01:25:43.149Z,40.22
2023-03-29T01:27:57.853Z,40.57
2023-03-29T01:30:06.406Z,40.73
2023-03-29T01:32:14.775Z,40.71
2023-03-29T01:34:25.734Z,40.90
2023-03-29T01:36:35.162Z,40.57
2023-03-29T01:38:45.456Z,40.83
2023-03-29T01:40:50.654Z,40.64
2023-03-29T01:43:07.147Z,40.98
2023-03-29T01:45:24.606Z,41.18
2023-03-29T01:47:37.538Z,41.19
2023-03-29T01:49:45.995Z,41.23
2023-03-29T01:51:56.465Z,41.32
2023-03-29T01:54:06.854Z,41.33
2023-03-29T01:56:15.024Z,41.34
2023-03-29T01:58:26.627Z,41.63
2023-03-29T02:00:32.463Z,41.48
2023-03-29T02:02:37.976Z,41.56
2023-03-29T02:04:50.288Z,41.93
2023-03-29T02:06:57.438Z,41.96
2023-03-29T02:09:03.333Z,41.84
2023-03-29T02:11:08.800Z,41.90
2023-03-29T02:13:13.691Z,42.22
2023-03-29T02:15:23.700Z,42.30
2023-03-29T02:17:31.035Z,42.52
2023-03-29T02:19:35.957Z,42.44
2023-03-29T02:21:48.479Z,42.58
2023-03-29T02:23:54.906Z,42.60
2023-03-29T02:25:59.871Z,42.88
2023-03-29T02:28:04.864Z,42.84
2023-03-29T02:30:12.721Z,42.99
2023-03-29T02:32:27.548Z,43.45
2023-03-29T02:34:37.883Z,43.25
2023-03-29T02:36:47.615Z,43.44
2023-03-29T02:38:52.948Z,43.56
2023-03-29T02:40:59.833Z,43.52
2023-03-29T02:43:07.158Z,43.58
2023-03-29T02:45:15.852Z,43.91
2023-03-29T02:47:27.838Z,44.00
2023-03-29T02:49:32.909Z,44.06
2023-03-29T02:51:39.420Z,44.42
2023-03-29T02:53:47.831Z,44.38
2023-03-29T02:55:53.053Z,44.54
2023-03-29T02:57:57.972Z,44.63
2023-03-29T03:00:10.037Z,44.59
2023-03-29T03:02:17.761Z,44.88
2023-03-29T03:04:25.674Z,45.19
2023-03-29T03:06:30.488Z,45.10
2023-03-29T03:08:35.371Z,45.13
2023-03-29T03:10:41.177Z,45.28
2023-03-29T03:12:46.182Z,45.48
2023-03-29T03:14:51.076Z,45.72
2023-03-29T03:16:55.900Z,45.88
2023-03-29T03:19:01.193Z,45.67
2023-03-29T03:21:09.857Z,46.20
2023-03-29T03:23:15.431Z,46.01
2023-03-29T03:25:22.263Z,46.25
2023-03-29T03:27:27.945Z,46.05
2023-03-29T03:29:32.851Z,46.28
2023-03-29T03:31:44.946Z,46.28
2023-03-29T03:34:10.005Z,46.39
2023-03-29T03:36:36.284Z,46.47
2023-03-29T03:38:41.823Z,46.36
2023-03-29T03:40:47.093Z,46.84
2023-03-29T03:42:52.145Z,46.91
2023-03-29T03:44:57.475Z,46.80
2023-03-29T03:47:22.404Z,46.89
2023-03-29T03:49:27.468Z,47.09
2023-03-29T03:51:32.364Z,47.25
2023-03-29T03:53:39.959Z,47.17
2023-03-29T03:56:09.159Z,47.05
2023-03-29T03:58:26.251Z,47.26
2023-03-29T04:00:31.483Z,47.30
2023-03-29T04:02:57.245Z,47.46
2023-03-29T04:05:03.747Z,47.50
2023-03-29T04:07:14.477Z,47.53
2023-03-29T04:09:39.151Z,47.41
2023-03-29T04:12:14.533Z,47.33
2023-03-29T04:14:20.757Z,47.71
2023-03-29T04:16:45.848Z,47.66
2023-03-29T04:19:14.039Z,47.71
2023-03-29T04:21:21.283Z,47.83
2023-03-29T04:23:26.449Z,48.06
2023-03-29T04:25:34.791Z,48.03
2023-03-29T04:28:16.391Z,47.93
2023-03-29T04:30:43.446Z,48.12
2023-03-29T04:32:58.629Z,48.08
2023-03-29T04:35:04.979Z,48.19
2023-03-29T04:37:10.845Z,48.29
2023-03-29T04:39:18.191Z,48.13
2023-03-29T04:41:28.052Z,48.43
2023-03-29T04:43:56.305Z,48.25
2023-03-29T04:46:07.521Z,48.41
2023-03-29T04:48:31.797Z,48.02
2023-03-29T04:50:36.813Z,48.28
2023-03-29T04:52:42.480Z,48.37
2023-03-29T04:54:47.734Z,48.50
2023-03-29T04:57:02.656Z,48.51
2023-03-29T04:59:26.224Z,48.41
2023-03-29T05:01:31.670Z,48.43
2023-03-29T05:03:37.160Z,48.61
2023-03-29T05:05:50.868Z,48.43
2023-03-29T05:07:55.750Z,48.42
2023-03-29T05:10:06.855Z,48.29
2023-03-29T05:12:14.306Z,48.38
2023-03-29T05:14:30.240Z,48.44
2023-03-29T05:16:35.856Z,48.31
2023-03-29T05:18:41.016Z,48.51
2023-03-29T05:20:46.009Z,48.66
2023-03-29T05:22:54.996Z,48.60
2023-03-29T05:25:20.740Z,48.58
2023-03-29T05:27:28.256Z,48.58
2023-03-29T05:29:40.191Z,48.57
2023-03-29T05:32:02.136Z,48.35
2023-03-29T05:34:07.438Z,48.69
2023-03-29T05:36:19.146Z,48.74
2023-03-29T05:38:27.160Z,48.67
2023-03-29T05:40:32.403Z,48.46
2023-03-29T05:42:57.963Z,48.45
2023-03-29T05:45:03.093Z,48.63
2023-03-29T05:47:08.143Z,48.57
2023-03-29T05:49:13.057Z,48.45
2023-03-29T05:51:35.637Z,48.45
2023-03-29T05:53:40.662Z,48.58
2023-03-29T05:55:45.592Z,48.49
2023-03-29T05:57:52.685Z,48.55
2023-03-29T06:00:17.016Z,48.84
2023-03-29T06:02:22.428Z,48.71
2023-03-29T06:04:31.065Z,48.65
2023-03-29T06:07:00.501Z,48.92
2023-03-29T06:09:05.550Z,48.83
2023-03-29T06:11:31.773Z,48.95
2023-03-29T06:13:55.586Z,48.93
2023-03-29T06:16:04.437Z,48.92
2023-03-29T06:18:09.965Z,48.79
2023-03-29T06:20:17.265Z,48.96
2023-03-29T06:22:27.274Z,48.86
2023-03-29T06:24:32.657Z,49.07
2023-03-29T06:26:44.348Z,48.88
2023-03-29T06:28:52.100Z,49.11
2023-03-29T06:31:03.033Z,49.15
2023-03-29T06:33:17.066Z,49.16
2023-03-29T06:35:30.473Z,49.30
2023-03-29T06:37:49.672Z,49.38
2023-03-29T06:40:21.807Z,49.21
2023-03-29T06:42:27.066Z,49.16
2023-03-29T06:44:55.108Z,49.26
2023-03-29T06:47:02.418Z,49.19
2023-03-29T06:49:12.165Z,49.58
2023-03-29T06:51:31.524Z,49.14
2023-03-29T06:53:37.191Z,49.27
2023-03-29T06:55:42.331Z,49.28
2023-03-29T06:58:13.164Z,49.36
2023-03-29T07:00:19.843Z,49.67
2023-03-29T07:02:41.359Z,49.41
2023-03-29T07:04:52.200Z,49.72
2023-03-29T07:07:07.936Z,49.61
2023-03-29T07:09:14.388Z,49.79
2023-03-29T07:11:45.805Z,49.81
2023-03-29T07:13:59.797Z,49.75
2023-03-29T07:16:04.939Z,50.01
2023-03-29T07:18:36.513Z,49.99
2023-03-29T07:20:44.036Z,50.20
2023-03-29T07:22:52.008Z,50.07
2023-03-29T07:24:57.589Z,50.22
2023-03-29T07:27:04.679Z,50.24
2023-03-29T07:29:11.993Z,49.98
2023-03-29T07:31:18.807Z,50.15
2023-03-29T07:33:29.657Z,49.99
2023-03-29T07:35:38.565Z,50.37
2023-03-29T07:37:48.951Z,50.21
2023-03-29T07:39:54.453Z,50.22
2023-03-29T07:42:26.081Z,50.01
2023-03-29T07:44:33.277Z,50.34
2023-03-29T07:46:38.628Z,50.19
2023-03-29T07:48:43.772Z,50.47
2023-03-29T07:50:51.970Z,50.17
2023-03-29T07:53:04.413Z,50.30
2023-03-29T07:55:13.482Z,50.17
2023-03-29T07:57:38.979Z,50.27
2023-03-29T07:59:43.889Z,50.39
2023-03-29T08:01:55.451Z,50.27
2023-03-29T08:04:06.205Z,50.28
2023-03-29T08:06:29.702Z,50.22
2023-03-29T08:08:37.208Z,50.44
2023-03-29T08:10:48.163Z,50.49
2023-03-29T08:13:01.200Z,50.29
2023-03-29T08:15:15.600Z,50.56
2023-03-29T08:17:21.052Z,50.57
2023-03-29T08:19:28.376Z,50.73
2023-03-29T08:21:42.552Z,50.66
2023-03-29T08:23:50.339Z,50.97
2023-03-29T08:25:59.738Z,50.78
2023-03-29T08:28:04.814Z,50.88
2023-03-29T08:30:18.402Z,50.97
2023-03-29T08:32:23.609Z,50.68
2023-03-29T08:34:28.929Z,50.91
2023-03-29T08:36:55.926Z,50.92
2023-03-29T08:39:10.248Z,50.86
2023-03-29T08:41:32.608Z,50.99
2023-03-29T08:43:55.513Z,51.07
2023-03-29T08:46:34.396Z,51.02
2023-03-29T08:48:56.652Z,50.79
2023-03-29T08:51:08.637Z,50.71
2023-03-29T08:53:20.588Z,50.81
2023-03-29T08:55:45.594Z,50.81
2023-03-29T08:58:15.093Z,50.96
2023-03-29T09:00:24.589Z,51.02
2023-03-29T09:02:34.453Z,50.67
2023-03-29T09:04:44.099Z,50.58
2023-03-29T09:07:12.320Z,50.52
2023-03-29T09:09:24.575Z,50.38
2023-03-29T09:11:49.859Z,50.63
2023-03-29T09:14:01.292Z,50.11
2023-03-29T09:16:14.282Z,50.12
2023-03-29T09:18:29.366Z,50.18
2023-03-29T09:20:42.812Z,50.11
2023-03-29T09:22:52.731Z,49.98
2023-03-29T09:25:07.751Z,49.82
2023-03-29T09:27:22.830Z,49.78
2023-03-29T09:29:49.921Z,49.71
2023-03-29T09:31:58.720Z,49.61
2023-03-29T09:34:13.708Z,49.38
2023-03-29T09:36:43.824Z,49.61
2023-03-29T09:38:54.569Z,49.50
2023-03-29T09:41:18.237Z,49.46
2023-03-29T09:43:32.548Z,49.37
2023-03-29T09:45:41.041Z,49.56
2023-03-29T09:47:51.807Z,49.38
2023-03-29T09:50:02.186Z,49.26
2023-03-29T09:52:11.772Z,49.03
2023-03-29T09:54:17.563Z,48.94
2023-03-29T09:56:46.108Z,48.55
2023-03-29T09:58:57.189Z,48.14
2023-03-29T10:01:04.750Z,48.03
2023-03-29T10:03:10.817Z,47.94
2023-03-29T10:05:29.713Z,47.36
2023-03-29T10:07:46.454Z,47.36
2023-03-29T10:09:55.352Z,47.43
2023-03-29T10:12:03.426Z,47.04
2023-03-29T10:14:17.075Z,46.95
2023-03-29T10:16:24.302Z,46.97
2023-03-29T10:18:29.951Z,47.20
2023-03-29T10:20:38.792Z,46.86
2023-03-29T10:22:50.283Z,47.03
2023-03-29T10:24:57.363Z,46.71
2023-03-29T10:27:05.410Z,46.64
2023-03-29T10:29:15.832Z,46.63
2023-03-29T10:31:22.893Z,46.75
2023-03-29T10:33:30.708Z,46.71
2023-03-29T10:35:41.849Z,46.36
2023-03-29T10:37:52.057Z,46.45
2023-03-29T10:39:57.552Z,46.14
2023-03-29T10:42:04.219Z,46.05
2023-03-29T10:44:09.239Z,46.35
2023-03-29T10:46:24.580Z,46.11
2023-03-29T10:48:32.936Z,46.11
2023-03-29T10:50:39.920Z,46.00
2023-03-29T10:52:44.861Z,46.04
2023-03-29T10:54:50.199Z,46.01
2023-03-29T10:56:58.696Z,46.05
2023-03-29T10:59:19.640Z,45.81
2023-03-29T11:01:36.257Z,45.80
2023-03-29T11:04:10.920Z,45.35
2023-03-29T11:06:24.754Z,45.08
2023-03-29T11:08:48.661Z,45.00
2023-03-29T11:11:02.566Z,44.97
2023-03-29T11:13:13.672Z,44.15
2023-03-29T11:15:32.353Z,43.48
2023-03-29T11:17:55.290Z,42.74
2023-03-29T11:20:16.600Z,42.52
2023-03-29T11:22:26.990Z,42.33
2023-03-29T11:24:47.073Z,42.25
2023-03-29T11:27:07.424Z,42.33
2023-03-29T11:29:20.932Z,42.15
2023-03-29T11:31:38.348Z,42.18
2023-03-29T11:34:01.494Z,41.74
2023-03-29T11:36:13.533Z,42.38
2023-03-29T11:38:26.880Z,42.41
2023-03-29T11:40:47.552Z,42.41
2023-03-29T11:42:57.140Z,42.37
2023-03-29T11:45:05.205Z,42.40
2023-03-29T11:47:15.786Z,41.70
2023-03-29T11:49:28.407Z,41.66
2023-03-29T11:51:38.748Z,41.93
2023-03-29T11:53:51.933Z,41.88
2023-03-29T11:55:57.686Z,42.51
2023-03-29T11:58:08.088Z,42.51
2023-03-29T12:00:19.118Z,42.16
2023-03-29T12:02:31.969Z,41.75
2023-03-29T12:04:44.671Z,41.76
2023-03-29T12:06:55.928Z,41.60
2023-03-29T12:09:06.298Z,41.78
2023-03-29T12:11:17.264Z,41.53
2023-03-29T12:13:27.425Z,41.24
2023-03-29T12:15:37.519Z,41.53
2023-03-29T12:17:47.754Z,41.23
2023-03-29T12:20:04.676Z,41.07
2023-03-29T12:22:12.044Z,41.43
2023-03-29T12:24:23.707Z,41.22
2023-03-29T12:26:47.273Z,41.74
2023-03-29T12:29:03.861Z,42.13
2023-03-29T12:31:19.671Z,41.92
2023-03-29T12:33:46.704Z,41.70
2023-03-29T12:36:33.648Z,41.98
2023-03-29T13:00:52.773Z,41.28
2023-03-29T13:12:55.373Z,40.87
2023-03-29T13:19:09.159Z,40.59
2023-03-29T13:25:17.449Z,40.63
2023-03-29T13:27:32.334Z,40.75
2023-03-29T13:29:59.107Z,40.54
2023-03-29T13:32:16.325Z,40.08
2023-03-29T13:34:34.043Z,40.67
2023-03-29T13:36:52.467Z,39.92
2023-03-29T13:43:16.082Z,40.36
2023-03-29T13:45:29.295Z,40.05
2023-03-29T13:48:04.727Z,40.58
2023-03-29T13:50:18.735Z,40.62
2023-03-29T13:52:29.457Z,40.38
2023-03-29T13:54:40.204Z,40.28
2023-03-29T13:57:00.946Z,39.89
2023-03-29T13:59:13.698Z,40.06
2023-03-29T14:01:28.820Z,40.32
2023-03-29T14:03:43.068Z,40.11
2023-03-29T14:05:54.109Z,39.96
2023-03-29T14:07:59.576Z,40.03
2023-03-29T14:10:05.341Z,40.00
2023-03-29T15:12:20.196Z,40.01
2023-03-29T15:14:27.120Z,40.06
2023-03-29T15:16:33.632Z,40.10
2023-03-29T15:18:41.929Z,39.72
2023-03-29T15:20:47.638Z,39.90
2023-03-29T15:22:58.779Z,39.86
2023-03-29T15:25:04.192Z,39.76
2023-03-29T15:27:17.628Z,39.69
2023-03-29T15:29:26.210Z,39.97
2023-03-29T15:31:38.107Z,39.76
2023-03-29T15:33:44.564Z,39.59
2023-03-29T15:35:54.210Z,39.68
2023-03-29T15:37:59.160Z,40.10
2023-03-29T15:40:07.996Z,39.80
2023-03-29T15:42:13.671Z,39.92
2023-03-29T15:44:20.292Z,39.77
2023-03-29T15:46:27.771Z,39.56
2023-03-29T15:48:34.367Z,39.62
2023-03-29T15:50:39.322Z,39.65
2023-03-29T15:52:44.507Z,39.45
2023-03-29T15:54:49.560Z,39.42
2023-03-29T15:56:57.318Z,39.62
2023-03-29T15:59:02.231Z,39.32
2023-03-29T16:01:16.158Z,39.57
2023-03-29T16:03:24.807Z,39.89
2023-03-29T16:05:29.662Z,39.69
2023-03-29T16:07:34.429Z,39.71
2023-03-29T16:09:39.542Z,39.36
2023-03-29T16:11:46.307Z,39.51
2023-03-29T16:13:51.340Z,39.82
2023-03-29T16:15:57.275Z,39.72
2023-03-29T16:18:02.300Z,39.59
2023-03-29T16:20:15.074Z,39.90
2023-03-29T16:22:20.187Z,39.76
2023-03-29T16:24:27.284Z,39.64
2023-03-29T16:26:32.802Z,39.84
2023-03-29T16:28:37.965Z,39.60
2023-03-29T16:30:43.258Z,39.41
2023-03-29T16:32:48.339Z,39.41
2023-03-29T16:34:53.799Z,39.20
2023-03-29T16:37:01.181Z,38.93
2023-03-29T16:39:06.298Z,39.35
2023-03-29T16:41:13.336Z,39.32
2023-03-29T16:43:19.024Z,39.34
2023-03-29T16:45:23.824Z,39.67
2023-03-29T16:47:29.537Z,39.76
2023-03-29T16:49:34.783Z,39.78
2023-03-29T16:51:40.105Z,40.10
2023-03-29T16:53:48.033Z,40.17
2023-03-29T16:55:53.106Z,40.49
2023-03-29T16:57:58.289Z,40.36
2023-03-29T17:00:04.080Z,40.72
2023-03-29T17:02:08.976Z,40.74
2023-03-29T17:04:14.358Z,41.06
2023-03-29T17:06:19.321Z,41.06
2023-03-29T17:08:24.832Z,41.15
2023-03-29T17:10:32.573Z,41.40
2023-03-29T17:12:38.018Z,41.14
2023-03-29T17:14:43.068Z,41.72
2023-03-29T17:16:48.534Z,41.40
2023-03-29T17:18:53.384Z,41.67
2023-03-29T17:21:01.825Z,41.71
2023-03-29T17:23:06.616Z,42.21
2023-03-29T17:25:12.811Z,42.08
2023-03-29T17:27:21.298Z,42.27
2023-03-29T17:29:26.620Z,42.29
2023-03-29T17:31:31.482Z,42.37
2023-03-29T17:33:36.506Z,42.55
2023-03-29T17:35:41.320Z,42.57
2023-03-29T17:37:46.581Z,42.49
2023-03-29T17:39:51.928Z,42.61
2023-03-29T17:41:57.058Z,42.42
2023-03-29T17:44:05.145Z,42.89
2023-03-29T17:46:10.573Z,42.63
2023-03-29T17:48:15.357Z,42.81
2023-03-29T17:50:21.416Z,42.94
2023-03-29T17:52:27.827Z,42.98
2023-03-29T17:54:32.742Z,42.90
2023-03-29T17:56:37.624Z,43.12
2023-03-29T17:58:42.836Z,43.05
2023-03-29T18:00:50.355Z,43.11
2023-03-29T18:02:55.515Z,43.29
2023-03-29T18:05:01.856Z,43.38
2023-03-29T18:07:06.700Z,43.41
2023-03-29T18:09:11.749Z,43.35
2023-03-29T18:11:22.186Z,43.51
2023-03-29T18:13:27.600Z,43.66
2023-03-29T18:15:32.536Z,43.34
2023-03-29T18:17:40.332Z,43.58
2023-03-29T18:19:45.290Z,43.67
2023-03-29T18:21:50.128Z,43.35
2023-03-29T18:23:57.019Z,43.40
2023-03-29T18:26:03.233Z,43.36
2023-03-29T18:28:08.525Z,43.33
2023-03-29T18:30:16.918Z,43.42
2023-03-29T18:32:21.945Z,43.77
2023-03-29T18:34:29.661Z,43.73
2023-03-29T18:36:34.808Z,44.01
2023-03-29T18:38:40.711Z,44.17
2023-03-29T18:40:45.844Z,44.11
2023-03-29T18:42:50.774Z,44.12
2023-03-29T18:44:55.792Z,44.06
2023-03-29T18:47:00.592Z,43.92
2023-03-29T18:49:07.807Z,44.24
2023-03-29T18:51:16.240Z,44.11
2023-03-29T18:53:21.654Z,44.25
2023-03-29T18:55:26.696Z,44.25
2023-03-29T18:57:31.616Z,44.28
2023-03-29T18:59:36.862Z,44.45
2023-03-29T19:01:41.802Z,44.69
2023-03-29T19:03:47.184Z,44.55
2023-03-29T19:05:55.521Z,44.44
2023-03-29T19:08:04.684Z,44.82
2023-03-29T19:10:12.273Z,44.68
2023-03-29T19:12:17.026Z,44.90
2023-03-29T19:14:24.331Z,45.14
2023-03-29T19:16:29.692Z,45.46
2023-03-29T19:18:35.888Z,45.58
2023-03-29T19:20:41.476Z,45.68
2023-03-29T19:22:46.278Z,45.71
2023-03-29T19:24:53.735Z,45.89
2023-03-29T19:26:58.673Z,46.49
2023-03-29T19:29:03.820Z,46.44
2023-03-29T19:31:08.945Z,46.82
2023-03-29T19:33:14.716Z,46.97
2023-03-29T19:35:20.038Z,46.84
2023-03-29T19:37:24.880Z,46.90
2023-03-29T19:39:30.080Z,47.22
2023-03-29T19:41:38.554Z,47.69
2023-03-29T19:43:44.504Z,47.36
2023-03-29T19:45:50.941Z,47.72
2023-03-29T19:47:56.946Z,47.81
2023-03-29T19:50:02.047Z,48.04
2023-03-29T19:52:07.063Z,48.23
2023-03-29T19:54:12.957Z,48.34
2023-03-29T19:56:18.276Z,48.45
2023-03-29T19:58:26.243Z,48.52
2023-03-29T20:00:32.253Z,48.47
2023-03-29T20:02:37.875Z,48.64
2023-03-29T20:04:43.007Z,48.92
2023-03-29T20:06:48.058Z,49.10
2023-03-29T20:08:53.112Z,48.99
2023-03-29T20:11:03.002Z,49.46
2023-03-29T20:13:08.793Z,49.31
2023-03-29T20:15:16.551Z,49.58
2023-03-29T20:17:21.516Z,49.49
2023-03-29T20:19:27.061Z,49.47
2023-03-29T20:21:33.838Z,49.54
2023-03-29T20:23:39.168Z,49.54
2023-03-29T20:25:44.521Z,50.03
2023-03-29T20:27:49.654Z,50.08
2023-03-29T20:29:54.770Z,49.88
2023-03-29T20:32:02.202Z,50.13
2023-03-29T20:34:07.219Z,50.28
2023-03-29T20:36:12.317Z,50.32
2023-03-29T20:38:18.218Z,50.48
2023-03-29T20:40:23.129Z,50.25
2023-03-29T20:42:29.868Z,50.36
2023-03-29T20:44:35.474Z,50.52
2023-03-29T20:46:54.453Z,50.43
2023-03-29T20:49:02.288Z,50.94
2023-03-29T20:51:10.283Z,50.80
2023-03-29T20:53:15.465Z,50.88
2023-03-29T20:55:22.479Z,51.32
2023-03-29T20:57:29.222Z,51.37
2023-03-29T20:59:35.829Z,51.09
2023-03-29T21:01:42.548Z,51.55
2023-03-29T21:03:47.518Z,51.59
2023-03-29T21:05:58.418Z,51.62
2023-03-29T21:08:04.468Z,51.55
2023-03-29T21:10:11.551Z,51.60
2023-03-29T21:12:16.898Z,51.63
2023-03-29T21:14:22.697Z,51.75
2023-03-29T21:16:29.157Z,51.88
2023-03-29T21:18:34.173Z,51.80
2023-03-29T21:20:40.472Z,51.94
2023-03-29T21:22:47.826Z,52.00
2023-03-29T21:24:52.616Z,52.11
2023-03-29T21:26:57.451Z,52.03
2023-03-29T21:29:02.294Z,51.76
2023-03-29T21:31:08.019Z,51.97
2023-03-29T21:33:13.262Z,52.23
2023-03-29T21:35:17.990Z,51.91
2023-03-29T21:37:22.845Z,52.21
2023-03-29T21:39:31.569Z,52.08
2023-03-29T21:41:36.864Z,52.24
2023-03-29T21:43:41.896Z,52.02
2023-03-29T21:45:46.748Z,52.08
2023-03-29T21:47:51.557Z,52.15
2023-03-29T21:49:56.574Z,52.12
2023-03-29T21:52:01.388Z,52.26
2023-03-29T21:54:06.761Z,52.36
2023-03-29T21:56:14.923Z,52.29
2023-03-29T21:58:20.427Z,52.14
2023-03-29T22:00:25.430Z,52.14
2023-03-29T22:02:30.428Z,52.38
2023-03-29T22:04:37.125Z,52.37
2023-03-29T22:06:42.579Z,52.58
2023-03-29T22:08:49.681Z,52.41
2023-03-29T22:10:57.037Z,52.46
2023-03-29T22:13:04.439Z,52.35
2023-03-29T22:15:10.979Z,52.57
2023-03-29T22:17:16.190Z,52.50
2023-03-29T22:19:21.251Z,52.63
2023-03-29T22:21:28.719Z,52.69
2023-03-29T22:23:33.884Z,52.91
2023-03-29T22:25:40.057Z,52.68
2023-03-29T22:27:46.090Z,52.59
2023-03-29T22:29:53.500Z,52.74
2023-03-29T22:31:58.372Z,52.83
2023-03-29T22:34:03.477Z,52.57
2023-03-29T22:36:16.139Z,53.14
2023-03-29T22:38:21.588Z,53.00
2023-03-29T22:40:26.473Z,52.82
2023-03-29T22:42:31.736Z,53.10
2023-03-29T22:44:36.732Z,53.00
2023-03-29T22:46:44.132Z,52.90
2023-03-29T22:48:49.147Z,53.30
2023-03-29T22:50:53.898Z,53.11
2023-03-29T22:52:58.735Z,53.05
2023-03-29T22:55:03.501Z,53.30
2023-03-29T22:57:08.326Z,53.33
2023-03-29T22:59:13.089Z,53.03
2023-03-29T23:01:17.910Z,53.23
2023-03-29T23:03:25.649Z,53.34
2023-03-29T23:05:30.461Z,53.37
2023-03-29T23:07:36.933Z,53.11
2023-03-29T23:09:41.749Z,53.13
2023-03-29T23:11:46.479Z,53.35
2023-03-29T23:13:52.670Z,53.49
2023-03-29T23:15:59.275Z,53.60
2023-03-29T23:18:04.961Z,53.50
2023-03-29T23:20:14.101Z,53.50
2023-03-29T23:22:18.906Z,53.57
2023-03-29T23:24:23.677Z,53.51
2023-03-29T23:26:28.745Z,53.81
2023-03-29T23:28:34.899Z,53.95
2023-03-29T23:30:40.520Z,53.85
2023-03-29T23:32:45.325Z,53.98
2023-03-29T23:34:50.270Z,53.75
2023-03-29T23:36:57.670Z,53.70
2023-03-29T23:39:02.557Z,53.97
2023-03-29T23:41:10.554Z,54.12
2023-03-29T23:43:17.239Z,54.08
2023-03-29T23:45:22.260Z,53.83
2023-03-29T23:47:28.994Z,54.08
2023-03-29T23:49:34.025Z,53.74
2023-03-29T23:51:39.334Z,53.97
2023-03-29T23:53:46.783Z,54.05
2023-03-29T23:55:51.875Z,54.12
2023-03-29T23:57:56.769Z,53.93
